Airborne Airpark
KILN : now visible

Airfield :











YOU CAN JOIN US ON...

 
LOGIN :

Register | Disclaimer

   EN    FR    IT 

 









Legend :    VFR   Marginal VFR   IFR   Intensive IFR   Very Intensive IFR
Visi :
Ceiling :
>= 8 km
>= 3000ft
5 to 8 km
1000 to 3000 ft
1500m to 5 km
500 to 1000 ft
800 to 1500m
200 to 500 ft
< 800m
< 200 ft
Symbols :   Thunderstorms  Fog  Heavy snow  Heavy precipitations  Wind > 20 kt






- Airport Elevation : 1077 ft


KILN - Airborne Airpark

CURRENT METAR :
  • 290054Z AUTO 05003KT 9SM SCT050 11/09 A2999 RMK AO2 SLP165 T01060089

EXPIRED METARs :
  • 290015Z AUTO 00000KT 8SM SCT013 BKN031 11/09 A3000 RMK AO2 T01060089
  • 282354Z AUTO 00000KT 8SM OVC013 11/09 A3001 RMK AO2 SLP170 T01110089 10117 20111 55007
  • 282254Z AUTO 04005KT 10SM OVC013 11/09 A3000 RMK AO2 SLP168 T01110089

TAF KILN
Valid from the 29 at 01:00 until the 30 at 00:00 UTC


290115Z 2901/2924 05003KT P6SM SCT012 OVC050
FM290500 06004KT P6SM VCSH OVC015
TEMPO 2905/2908 5SM -RA BR OVC009
FM290800 05009KT 3SM RA BR OVC008
FM291500 03014G25KT 4SM RA BR OVC008
FM292300 02013KT 6SM -RA BR OVC015
KZID FIR / North America



MET'MAP, your aeronautical weather chart ! - Copyright ORBIFLY December 2007 - Disclaimer

ORBIFLY MET'MAP TEAM :

Programming & Development : Alexandra Zaïnal
Concept & original design : Baudouin d'Aumeries
Assistance for programming : Marc-Olivier Méhu
Technical & hardware support : Manuel Goepfert

Contact : metmap@orbifly.com




SOURCES & CREDITS :

   NOAA       Earth
Advisory